sensor_id;sensor_type;location;lat;lon;timestamp;P1;durP1;ratioP1;P2;durP2;ratioP2
22525;SDS011;11429;50.842;4.386;2022-08-20T00:00:52;9.82;;;5.72;;
22525;SDS011;11429;50.842;4.386;2022-08-20T00:03:27;9.85;;;5.70;;
22525;SDS011;11429;50.842;4.386;2022-08-20T00:06:13;9.75;;;5.57;;
22525;SDS011;11429;50.842;4.386;2022-08-20T00:08:41;11.10;;;5.63;;
22525;SDS011;11429;50.842;4.386;2022-08-20T00:11:08;9.05;;;4.72;;
22525;SDS011;11429;50.842;4.386;2022-08-20T00:13:38;11.23;;;6.05;;
22525;SDS011;11429;50.842;4.386;2022-08-20T00:16:07;12.10;;;4.85;;
22525;SDS011;11429;50.842;4.386;2022-08-20T00:18:33;9.30;;;5.20;;
22525;SDS011;11429;50.842;4.386;2022-08-20T00:21:03;9.15;;;4.90;;
22525;SDS011;11429;50.842;4.386;2022-08-20T00:23:32;9.43;;;5.03;;
22525;SDS011;11429;50.842;4.386;2022-08-20T00:26:00;8.00;;;4.65;;
22525;SDS011;11429;50.842;4.386;2022-08-20T00:28:25;13.55;;;5.10;;
22525;SDS011;11429;50.842;4.386;2022-08-20T00:30:51;7.53;;;4.78;;
22525;SDS011;11429;50.842;4.386;2022-08-20T00:33:18;6.72;;;4.63;;
22525;SDS011;11429;50.842;4.386;2022-08-20T00:35:47;10.80;;;5.30;;
22525;SDS011;11429;50.842;4.386;2022-08-20T00:38:16;12.50;;;5.30;;
22525;SDS011;11429;50.842;4.386;2022-08-20T00:40:45;10.05;;;4.07;;
22525;SDS011;11429;50.842;4.386;2022-08-20T00:43:25;12.32;;;4.55;;
22525;SDS011;11429;50.842;4.386;2022-08-20T00:45:58;8.48;;;3.90;;
22525;SDS011;11429;50.842;4.386;2022-08-20T00:48:26;13.27;;;5.07;;
22525;SDS011;11429;50.842;4.386;2022-08-20T00:50:57;12.00;;;4.80;;
22525;SDS011;11429;50.842;4.386;2022-08-20T00:53:27;11.15;;;3.92;;
22525;SDS011;11429;50.842;4.386;2022-08-20T00:55:53;11.25;;;4.80;;
22525;SDS011;11429;50.842;4.386;2022-08-20T00:58:19;13.25;;;4.15;;
22525;SDS011;11429;50.842;4.386;2022-08-20T01:00:46;11.23;;;3.92;;
22525;SDS011;11429;50.842;4.386;2022-08-20T01:03:14;13.57;;;4.13;;
22525;SDS011;11429;50.842;4.386;2022-08-20T01:05:44;16.92;;;4.80;;
22525;SDS011;11429;50.842;4.386;2022-08-20T01:08:12;13.05;;;4.10;;
22525;SDS011;11429;50.842;4.386;2022-08-20T01:10:41;11.57;;;3.83;;
22525;SDS011;11429;50.842;4.386;2022-08-20T01:13:12;11.27;;;4.03;;
22525;SDS011;11429;50.842;4.386;2022-08-20T01:15:42;10.02;;;4.00;;
22525;SDS011;11429;50.842;4.386;2022-08-20T01:18:14;15.13;;;4.13;;
22525;SDS011;11429;50.842;4.386;2022-08-20T01:20:45;14.77;;;4.50;;
22525;SDS011;11429;50.842;4.386;2022-08-20T01:31:27;15.48;;;4.85;;
22525;SDS011;11429;50.842;4.386;2022-08-20T01:33:56;14.10;;;4.60;;
22525;SDS011;11429;50.842;4.386;2022-08-20T01:36:56;11.20;;;4.18;;
22525;SDS011;11429;50.842;4.386;2022-08-20T01:39:19;11.13;;;4.35;;
22525;SDS011;11429;50.842;4.386;2022-08-20T01:44:28;13.00;;;4.53;;
22525;SDS011;11429;50.842;4.386;2022-08-20T01:46:55;14.00;;;4.03;;
22525;SDS011;11429;50.842;4.386;2022-08-20T01:49:23;13.65;;;4.60;;
22525;SDS011;11429;50.842;4.386;2022-08-20T01:51:52;15.63;;;4.07;;
22525;SDS011;11429;50.842;4.386;2022-08-20T01:54:19;18.25;;;5.30;;
22525;SDS011;11429;50.842;4.386;2022-08-20T01:56:50;13.57;;;4.40;;
22525;SDS011;11429;50.842;4.386;2022-08-20T01:59:25;14.38;;;4.20;;
22525;SDS011;11429;50.842;4.386;2022-08-20T02:01:53;12.95;;;4.13;;
22525;SDS011;11429;50.842;4.386;2022-08-20T02:04:20;12.13;;;4.00;;
22525;SDS011;11429;50.842;4.386;2022-08-20T02:06:51;13.48;;;5.25;;
22525;SDS011;11429;50.842;4.386;2022-08-20T02:09:19;14.27;;;4.47;;
22525;SDS011;11429;50.842;4.386;2022-08-20T02:11:45;16.67;;;4.25;;
22525;SDS011;11429;50.842;4.386;2022-08-20T02:14:12;15.80;;;4.20;;
22525;SDS011;11429;50.842;4.386;2022-08-20T02:16:39;16.05;;;5.28;;
22525;SDS011;11429;50.842;4.386;2022-08-20T02:19:11;13.48;;;4.18;;
22525;SDS011;11429;50.842;4.386;2022-08-20T02:21:48;13.68;;;4.65;;
22525;SDS011;11429;50.842;4.386;2022-08-20T02:24:17;17.23;;;4.57;;
22525;SDS011;11429;50.842;4.386;2022-08-20T02:26:43;16.23;;;5.25;;
22525;SDS011;11429;50.842;4.386;2022-08-20T02:29:10;19.35;;;4.97;;
22525;SDS011;11429;50.842;4.386;2022-08-20T02:31:37;18.15;;;4.70;;
22525;SDS011;11429;50.842;4.386;2022-08-20T02:34:05;14.45;;;5.05;;
22525;SDS011;11429;50.842;4.386;2022-08-20T02:36:33;17.77;;;5.30;;
22525;SDS011;11429;50.842;4.386;2022-08-20T02:39:01;18.95;;;5.63;;
22525;SDS011;11429;50.842;4.386;2022-08-20T02:41:29;20.88;;;5.55;;
22525;SDS011;11429;50.842;4.386;2022-08-20T02:43:54;19.90;;;5.20;;
22525;SDS011;11429;50.842;4.386;2022-08-20T02:46:21;19.48;;;5.72;;
22525;SDS011;11429;50.842;4.386;2022-08-20T02:48:46;19.35;;;5.45;;
22525;SDS011;11429;50.842;4.386;2022-08-20T02:51:12;19.00;;;6.00;;
22525;SDS011;11429;50.842;4.386;2022-08-20T02:53:38;17.02;;;5.50;;
22525;SDS011;11429;50.842;4.386;2022-08-20T02:56:06;20.38;;;6.32;;
22525;SDS011;11429;50.842;4.386;2022-08-20T02:58:33;16.08;;;6.00;;
22525;SDS011;11429;50.842;4.386;2022-08-20T03:00:59;16.95;;;6.22;;
22525;SDS011;11429;50.842;4.386;2022-08-20T03:03:26;22.27;;;6.07;;
22525;SDS011;11429;50.842;4.386;2022-08-20T03:05:53;16.60;;;6.38;;
22525;SDS011;11429;50.842;4.386;2022-08-20T03:08:20;19.70;;;6.00;;
22525;SDS011;11429;50.842;4.386;2022-08-20T03:10:47;20.17;;;5.95;;
22525;SDS011;11429;50.842;4.386;2022-08-20T03:13:15;20.13;;;6.53;;
22525;SDS011;11429;50.842;4.386;2022-08-20T03:15:43;17.98;;;6.15;;
22525;SDS011;11429;50.842;4.386;2022-08-20T03:18:10;19.08;;;6.60;;
22525;SDS011;11429;50.842;4.386;2022-08-20T03:20:37;20.83;;;6.32;;
22525;SDS011;11429;50.842;4.386;2022-08-20T03:23:03;20.85;;;5.57;;
22525;SDS011;11429;50.842;4.386;2022-08-20T03:25:29;17.17;;;5.97;;
22525;SDS011;11429;50.842;4.386;2022-08-20T03:27:55;16.77;;;5.75;;
22525;SDS011;11429;50.842;4.386;2022-08-20T03:30:22;17.02;;;6.20;;
22525;SDS011;11429;50.842;4.386;2022-08-20T03:32:49;16.58;;;5.28;;
22525;SDS011;11429;50.842;4.386;2022-08-20T03:35:16;26.17;;;6.30;;
22525;SDS011;11429;50.842;4.386;2022-08-20T03:37:43;16.77;;;5.95;;
22525;SDS011;11429;50.842;4.386;2022-08-20T03:40:13;16.45;;;6.45;;
22525;SDS011;11429;50.842;4.386;2022-08-20T03:42:42;17.50;;;5.85;;
22525;SDS011;11429;50.842;4.386;2022-08-20T03:45:08;21.23;;;5.97;;
22525;SDS011;11429;50.842;4.386;2022-08-20T03:47:36;19.27;;;6.57;;
22525;SDS011;11429;50.842;4.386;2022-08-20T03:50:03;17.98;;;6.60;;
22525;SDS011;11429;50.842;4.386;2022-08-20T03:52:31;14.80;;;5.78;;
22525;SDS011;11429;50.842;4.386;2022-08-20T03:54:56;17.05;;;5.90;;
22525;SDS011;11429;50.842;4.386;2022-08-20T03:57:22;15.85;;;6.10;;
22525;SDS011;11429;50.842;4.386;2022-08-20T03:59:48;20.83;;;6.30;;
22525;SDS011;11429;50.842;4.386;2022-08-20T04:02:15;19.58;;;6.38;;
22525;SDS011;11429;50.842;4.386;2022-08-20T04:04:41;16.30;;;6.70;;
22525;SDS011;11429;50.842;4.386;2022-08-20T04:07:08;20.30;;;6.53;;
22525;SDS011;11429;50.842;4.386;2022-08-20T04:09:39;22.73;;;6.53;;
22525;SDS011;11429;50.842;4.386;2022-08-20T04:12:05;19.85;;;6.60;;
22525;SDS011;11429;50.842;4.386;2022-08-20T04:14:32;22.02;;;6.88;;
22525;SDS011;11429;50.842;4.386;2022-08-20T04:17:03;19.15;;;6.07;;
22525;SDS011;11429;50.842;4.386;2022-08-20T04:19:30;18.17;;;6.80;;
22525;SDS011;11429;50.842;4.386;2022-08-20T04:21:55;22.55;;;7.35;;
22525;SDS011;11429;50.842;4.386;2022-08-20T04:24:21;24.33;;;7.60;;
22525;SDS011;11429;50.842;4.386;2022-08-20T04:26:47;19.40;;;7.53;;
22525;SDS011;11429;50.842;4.386;2022-08-20T04:29:12;18.63;;;7.47;;
22525;SDS011;11429;50.842;4.386;2022-08-20T04:31:38;19.05;;;7.13;;
22525;SDS011;11429;50.842;4.386;2022-08-20T04:34:04;23.50;;;7.53;;
22525;SDS011;11429;50.842;4.386;2022-08-20T04:36:33;22.63;;;7.22;;
22525;SDS011;11429;50.842;4.386;2022-08-20T04:38:59;23.35;;;7.43;;
22525;SDS011;11429;50.842;4.386;2022-08-20T04:41:25;22.00;;;7.53;;
22525;SDS011;11429;50.842;4.386;2022-08-20T04:43:52;25.25;;;7.97;;
22525;SDS011;11429;50.842;4.386;2022-08-20T04:46:20;21.95;;;7.35;;
22525;SDS011;11429;50.842;4.386;2022-08-20T04:48:49;23.33;;;7.47;;
22525;SDS011;11429;50.842;4.386;2022-08-20T04:51:15;23.25;;;7.40;;
22525;SDS011;11429;50.842;4.386;2022-08-20T04:53:40;21.75;;;8.15;;
22525;SDS011;11429;50.842;4.386;2022-08-20T04:56:07;24.88;;;8.00;;
22525;SDS011;11429;50.842;4.386;2022-08-20T04:58:33;18.27;;;7.82;;
22525;SDS011;11429;50.842;4.386;2022-08-20T05:01:04;21.60;;;7.43;;
22525;SDS011;11429;50.842;4.386;2022-08-20T05:03:32;17.70;;;7.78;;
22525;SDS011;11429;50.842;4.386;2022-08-20T05:05:59;23.42;;;8.35;;
22525;SDS011;11429;50.842;4.386;2022-08-20T05:08:25;26.20;;;8.13;;
22525;SDS011;11429;50.842;4.386;2022-08-20T05:10:53;21.33;;;7.65;;
22525;SDS011;11429;50.842;4.386;2022-08-20T05:13:19;19.48;;;7.65;;
22525;SDS011;11429;50.842;4.386;2022-08-20T05:15:45;26.33;;;7.35;;
22525;SDS011;11429;50.842;4.386;2022-08-20T05:18:12;18.08;;;7.60;;
22525;SDS011;11429;50.842;4.386;2022-08-20T05:20:42;19.60;;;7.30;;
22525;SDS011;11429;50.842;4.386;2022-08-20T05:23:10;23.38;;;7.47;;
22525;SDS011;11429;50.842;4.386;2022-08-20T05:25:37;23.05;;;7.60;;
22525;SDS011;11429;50.842;4.386;2022-08-20T05:28:05;25.05;;;7.97;;
22525;SDS011;11429;50.842;4.386;2022-08-20T05:30:33;22.42;;;7.63;;
22525;SDS011;11429;50.842;4.386;2022-08-20T05:33:02;21.70;;;7.97;;
22525;SDS011;11429;50.842;4.386;2022-08-20T05:35:29;25.65;;;7.65;;
22525;SDS011;11429;50.842;4.386;2022-08-20T05:37:58;21.45;;;7.78;;
22525;SDS011;11429;50.842;4.386;2022-08-20T05:40:25;22.45;;;7.53;;
22525;SDS011;11429;50.842;4.386;2022-08-20T05:42:51;24.83;;;8.20;;
22525;SDS011;11429;50.842;4.386;2022-08-20T05:45:17;19.83;;;7.82;;
22525;SDS011;11429;50.842;4.386;2022-08-20T05:47:44;20.75;;;7.32;;
22525;SDS011;11429;50.842;4.386;2022-08-20T05:50:10;20.02;;;7.32;;
22525;SDS011;11429;50.842;4.386;2022-08-20T05:52:40;13.48;;;5.85;;
22525;SDS011;11429;50.842;4.386;2022-08-20T05:55:06;17.08;;;6.60;;
22525;SDS011;11429;50.842;4.386;2022-08-20T05:57:33;16.98;;;6.15;;
22525;SDS011;11429;50.842;4.386;2022-08-20T06:00:03;15.93;;;5.93;;
22525;SDS011;11429;50.842;4.386;2022-08-20T06:02:31;15.93;;;5.68;;
22525;SDS011;11429;50.842;4.386;2022-08-20T06:05:15;16.20;;;5.20;;
22525;SDS011;11429;50.842;4.386;2022-08-20T06:07:41;20.83;;;5.43;;
22525;SDS011;11429;50.842;4.386;2022-08-20T06:10:07;12.15;;;4.72;;
22525;SDS011;11429;50.842;4.386;2022-08-20T06:12:34;18.42;;;5.43;;
22525;SDS011;11429;50.842;4.386;2022-08-20T06:15:01;16.88;;;5.05;;
22525;SDS011;11429;50.842;4.386;2022-08-20T06:17:28;16.33;;;5.88;;
22525;SDS011;11429;50.842;4.386;2022-08-20T06:19:53;16.13;;;5.63;;
22525;SDS011;11429;50.842;4.386;2022-08-20T06:22:20;15.55;;;5.15;;
22525;SDS011;11429;50.842;4.386;2022-08-20T06:24:45;14.73;;;5.43;;
22525;SDS011;11429;50.842;4.386;2022-08-20T06:27:12;13.98;;;4.95;;
22525;SDS011;11429;50.842;4.386;2022-08-20T06:29:40;20.70;;;5.40;;
22525;SDS011;11429;50.842;4.386;2022-08-20T06:32:06;20.52;;;6.32;;
22525;SDS011;11429;50.842;4.386;2022-08-20T06:34:31;19.23;;;5.93;;
22525;SDS011;11429;50.842;4.386;2022-08-20T06:36:57;16.73;;;5.50;;
22525;SDS011;11429;50.842;4.386;2022-08-20T06:39:24;16.15;;;6.25;;
22525;SDS011;11429;50.842;4.386;2022-08-20T06:41:52;18.52;;;5.15;;
22525;SDS011;11429;50.842;4.386;2022-08-20T06:44:20;16.80;;;6.57;;
22525;SDS011;11429;50.842;4.386;2022-08-20T06:46:45;21.23;;;6.90;;
22525;SDS011;11429;50.842;4.386;2022-08-20T06:49:11;15.98;;;5.93;;
22525;SDS011;11429;50.842;4.386;2022-08-20T06:51:37;16.38;;;6.50;;
22525;SDS011;11429;50.842;4.386;2022-08-20T06:54:03;16.60;;;6.10;;
22525;SDS011;11429;50.842;4.386;2022-08-20T06:56:29;19.05;;;6.65;;
22525;SDS011;11429;50.842;4.386;2022-08-20T06:58:55;16.70;;;7.07;;
22525;SDS011;11429;50.842;4.386;2022-08-20T07:01:21;21.15;;;6.75;;
22525;SDS011;11429;50.842;4.386;2022-08-20T07:03:47;16.13;;;7.43;;
22525;SDS011;11429;50.842;4.386;2022-08-20T07:06:16;17.27;;;7.05;;
22525;SDS011;11429;50.842;4.386;2022-08-20T07:08:42;18.33;;;7.10;;
22525;SDS011;11429;50.842;4.386;2022-08-20T07:11:09;19.35;;;7.30;;
22525;SDS011;11429;50.842;4.386;2022-08-20T07:13:36;22.30;;;7.28;;
22525;SDS011;11429;50.842;4.386;2022-08-20T07:16:02;18.48;;;7.30;;
22525;SDS011;11429;50.842;4.386;2022-08-20T07:18:29;19.63;;;7.50;;
22525;SDS011;11429;50.842;4.386;2022-08-20T07:20:56;18.38;;;7.55;;
22525;SDS011;11429;50.842;4.386;2022-08-20T07:23:23;15.55;;;7.18;;
22525;SDS011;11429;50.842;4.386;2022-08-20T07:25:50;19.70;;;8.02;;
22525;SDS011;11429;50.842;4.386;2022-08-20T07:28:17;18.42;;;7.88;;
22525;SDS011;11429;50.842;4.386;2022-08-20T07:30:44;21.38;;;8.18;;
22525;SDS011;11429;50.842;4.386;2022-08-20T07:33:29;21.98;;;7.80;;
22525;SDS011;11429;50.842;4.386;2022-08-20T07:35:56;15.95;;;7.60;;
22525;SDS011;11429;50.842;4.386;2022-08-20T07:38:23;18.55;;;7.85;;
22525;SDS011;11429;50.842;4.386;2022-08-20T07:40:54;18.10;;;8.23;;
22525;SDS011;11429;50.842;4.386;2022-08-20T07:43:24;17.25;;;7.60;;
22525;SDS011;11429;50.842;4.386;2022-08-20T07:45:50;17.92;;;7.80;;
22525;SDS011;11429;50.842;4.386;2022-08-20T07:48:19;15.27;;;8.13;;
22525;SDS011;11429;50.842;4.386;2022-08-20T07:50:46;17.83;;;8.18;;
22525;SDS011;11429;50.842;4.386;2022-08-20T07:53:14;18.88;;;7.90;;
22525;SDS011;11429;50.842;4.386;2022-08-20T07:55:41;16.45;;;7.68;;
22525;SDS011;11429;50.842;4.386;2022-08-20T07:58:09;16.05;;;7.63;;
22525;SDS011;11429;50.842;4.386;2022-08-20T08:00:37;19.58;;;7.30;;
22525;SDS011;11429;50.842;4.386;2022-08-20T08:03:04;17.30;;;7.68;;
22525;SDS011;11429;50.842;4.386;2022-08-20T08:05:31;16.70;;;7.05;;
22525;SDS011;11429;50.842;4.386;2022-08-20T08:07:58;17.88;;;7.78;;
22525;SDS011;11429;50.842;4.386;2022-08-20T08:10:24;15.05;;;6.93;;
22525;SDS011;11429;50.842;4.386;2022-08-20T08:12:53;15.00;;;6.80;;
22525;SDS011;11429;50.842;4.386;2022-08-20T08:15:24;17.60;;;6.72;;
22525;SDS011;11429;50.842;4.386;2022-08-20T08:17:53;18.20;;;7.75;;
22525;SDS011;11429;50.842;4.386;2022-08-20T08:20:23;15.85;;;7.22;;
22525;SDS011;11429;50.842;4.386;2022-08-20T08:22:49;14.13;;;6.25;;
22525;SDS011;11429;50.842;4.386;2022-08-20T08:25:15;18.80;;;7.07;;
22525;SDS011;11429;50.842;4.386;2022-08-20T08:27:41;20.77;;;7.50;;
22525;SDS011;11429;50.842;4.386;2022-08-20T08:30:11;18.92;;;7.45;;
22525;SDS011;11429;50.842;4.386;2022-08-20T08:32:37;16.67;;;6.78;;
22525;SDS011;11429;50.842;4.386;2022-08-20T08:35:24;13.68;;;6.50;;
22525;SDS011;11429;50.842;4.386;2022-08-20T08:37:50;16.27;;;7.05;;
22525;SDS011;11429;50.842;4.386;2022-08-20T08:40:17;14.52;;;6.65;;
22525;SDS011;11429;50.842;4.386;2022-08-20T08:42:45;18.83;;;6.47;;
22525;SDS011;11429;50.842;4.386;2022-08-20T08:45:19;19.90;;;7.45;;
22525;SDS011;11429;50.842;4.386;2022-08-20T08:47:45;17.83;;;6.00;;
22525;SDS011;11429;50.842;4.386;2022-08-20T08:50:19;17.85;;;7.30;;
22525;SDS011;11429;50.842;4.386;2022-08-20T08:52:49;19.02;;;6.70;;
22525;SDS011;11429;50.842;4.386;2022-08-20T08:55:18;15.63;;;5.70;;
22525;SDS011;11429;50.842;4.386;2022-08-20T08:57:46;17.58;;;6.18;;
22525;SDS011;11429;50.842;4.386;2022-08-20T09:00:15;15.25;;;5.72;;
22525;SDS011;11429;50.842;4.386;2022-08-20T09:03:00;16.08;;;6.25;;
22525;SDS011;11429;50.842;4.386;2022-08-20T09:05:43;11.73;;;4.90;;
22525;SDS011;11429;50.842;4.386;2022-08-20T09:08:14;14.27;;;5.53;;
22525;SDS011;11429;50.842;4.386;2022-08-20T09:10:43;13.88;;;5.20;;
22525;SDS011;11429;50.842;4.386;2022-08-20T09:13:09;13.13;;;4.25;;
22525;SDS011;11429;50.842;4.386;2022-08-20T09:15:35;11.27;;;3.40;;
22525;SDS011;11429;50.842;4.386;2022-08-20T09:18:01;13.57;;;3.33;;
22525;SDS011;11429;50.842;4.386;2022-08-20T09:20:27;10.70;;;2.85;;
22525;SDS011;11429;50.842;4.386;2022-08-20T09:22:53;11.75;;;3.28;;
22525;SDS011;11429;50.842;4.386;2022-08-20T09:25:19;11.13;;;3.00;;
22525;SDS011;11429;50.842;4.386;2022-08-20T09:27:45;8.15;;;3.17;;
22525;SDS011;11429;50.842;4.386;2022-08-20T09:30:11;11.05;;;2.92;;
22525;SDS011;11429;50.842;4.386;2022-08-20T09:32:37;8.05;;;3.22;;
22525;SDS011;11429;50.842;4.386;2022-08-20T09:35:03;8.82;;;2.78;;
22525;SDS011;11429;50.842;4.386;2022-08-20T09:37:30;11.73;;;2.80;;
22525;SDS011;11429;50.842;4.386;2022-08-20T09:39:57;13.43;;;3.08;;
22525;SDS011;11429;50.842;4.386;2022-08-20T09:42:27;12.00;;;2.55;;
22525;SDS011;11429;50.842;4.386;2022-08-20T09:44:55;11.52;;;2.55;;
22525;SDS011;11429;50.842;4.386;2022-08-20T09:47:21;11.75;;;2.80;;
22525;SDS011;11429;50.842;4.386;2022-08-20T09:49:48;7.75;;;2.10;;
22525;SDS011;11429;50.842;4.386;2022-08-20T09:52:19;6.20;;;2.03;;
22525;SDS011;11429;50.842;4.386;2022-08-20T09:54:47;11.15;;;2.10;;
22525;SDS011;11429;50.842;4.386;2022-08-20T09:57:14;8.10;;;2.30;;
22525;SDS011;11429;50.842;4.386;2022-08-20T09:59:40;7.72;;;2.03;;
22525;SDS011;11429;50.842;4.386;2022-08-20T10:02:06;7.35;;;2.05;;
22525;SDS011;11429;50.842;4.386;2022-08-20T10:04:32;10.43;;;2.00;;
22525;SDS011;11429;50.842;4.386;2022-08-20T10:06:58;13.85;;;2.58;;
22525;SDS011;11429;50.842;4.386;2022-08-20T10:09:23;8.23;;;2.08;;
22525;SDS011;11429;50.842;4.386;2022-08-20T10:11:49;10.00;;;2.90;;
22525;SDS011;11429;50.842;4.386;2022-08-20T10:14:15;8.90;;;2.20;;
22525;SDS011;11429;50.842;4.386;2022-08-20T10:16:41;6.57;;;2.17;;
22525;SDS011;11429;50.842;4.386;2022-08-20T10:19:07;7.80;;;2.17;;
22525;SDS011;11429;50.842;4.386;2022-08-20T10:21:33;9.32;;;2.80;;
22525;SDS011;11429;50.842;4.386;2022-08-20T10:23:58;8.57;;;2.17;;
22525;SDS011;11429;50.842;4.386;2022-08-20T10:26:24;13.82;;;2.72;;
22525;SDS011;11429;50.842;4.386;2022-08-20T10:28:50;7.82;;;2.30;;
22525;SDS011;11429;50.842;4.386;2022-08-20T10:31:16;12.07;;;2.80;;
22525;SDS011;11429;50.842;4.386;2022-08-20T10:33:42;10.85;;;2.47;;
22525;SDS011;11429;50.842;4.386;2022-08-20T10:36:09;10.43;;;2.78;;
22525;SDS011;11429;50.842;4.386;2022-08-20T10:38:39;9.40;;;3.25;;
22525;SDS011;11429;50.842;4.386;2022-08-20T10:41:07;10.52;;;2.60;;
22525;SDS011;11429;50.842;4.386;2022-08-20T10:43:32;10.05;;;2.75;;
22525;SDS011;11429;50.842;4.386;2022-08-20T10:45:58;7.30;;;2.70;;
22525;SDS011;11429;50.842;4.386;2022-08-20T10:48:25;9.93;;;2.45;;
22525;SDS011;11429;50.842;4.386;2022-08-20T10:50:51;8.38;;;2.90;;
22525;SDS011;11429;50.842;4.386;2022-08-20T10:53:16;14.55;;;2.67;;
22525;SDS011;11429;50.842;4.386;2022-08-20T10:55:42;6.82;;;2.75;;
22525;SDS011;11429;50.842;4.386;2022-08-20T10:58:09;9.23;;;3.00;;
22525;SDS011;11429;50.842;4.386;2022-08-20T11:00:35;11.30;;;2.70;;
22525;SDS011;11429;50.842;4.386;2022-08-20T11:03:00;16.40;;;2.97;;
22525;SDS011;11429;50.842;4.386;2022-08-20T11:05:26;11.20;;;3.17;;
22525;SDS011;11429;50.842;4.386;2022-08-20T11:07:53;11.90;;;2.90;;
22525;SDS011;11429;50.842;4.386;2022-08-20T11:10:22;8.63;;;2.88;;
22525;SDS011;11429;50.842;4.386;2022-08-20T11:12:49;10.25;;;2.90;;
22525;SDS011;11429;50.842;4.386;2022-08-20T11:15:15;10.25;;;2.92;;
22525;SDS011;11429;50.842;4.386;2022-08-20T11:17:41;10.88;;;2.85;;
22525;SDS011;11429;50.842;4.386;2022-08-20T11:20:08;17.60;;;3.00;;
22525;SDS011;11429;50.842;4.386;2022-08-20T11:22:35;8.05;;;2.67;;
22525;SDS011;11429;50.842;4.386;2022-08-20T11:25:02;9.93;;;2.92;;
22525;SDS011;11429;50.842;4.386;2022-08-20T11:27:30;11.38;;;2.80;;
22525;SDS011;11429;50.842;4.386;2022-08-20T11:29:58;11.52;;;3.08;;
22525;SDS011;11429;50.842;4.386;2022-08-20T11:32:24;10.40;;;2.90;;
22525;SDS011;11429;50.842;4.386;2022-08-20T11:34:50;8.40;;;2.55;;
22525;SDS011;11429;50.842;4.386;2022-08-20T11:37:16;10.45;;;2.88;;
22525;SDS011;11429;50.842;4.386;2022-08-20T11:39:44;10.32;;;2.63;;
22525;SDS011;11429;50.842;4.386;2022-08-20T11:42:10;6.93;;;2.65;;
22525;SDS011;11429;50.842;4.386;2022-08-20T11:44:35;10.10;;;2.95;;
22525;SDS011;11429;50.842;4.386;2022-08-20T11:47:03;10.82;;;2.55;;
22525;SDS011;11429;50.842;4.386;2022-08-20T11:49:31;9.75;;;2.72;;
22525;SDS011;11429;50.842;4.386;2022-08-20T11:51:58;9.18;;;2.72;;
22525;SDS011;11429;50.842;4.386;2022-08-20T11:54:24;9.70;;;2.65;;
22525;SDS011;11429;50.842;4.386;2022-08-20T11:56:52;10.63;;;2.78;;
22525;SDS011;11429;50.842;4.386;2022-08-20T11:59:20;9.50;;;2.92;;
22525;SDS011;11429;50.842;4.386;2022-08-20T12:01:46;9.90;;;3.00;;
22525;SDS011;11429;50.842;4.386;2022-08-20T12:04:11;11.07;;;2.58;;
22525;SDS011;11429;50.842;4.386;2022-08-20T12:06:37;8.85;;;2.38;;
22525;SDS011;11429;50.842;4.386;2022-08-20T12:09:03;9.23;;;2.70;;
22525;SDS011;11429;50.842;4.386;2022-08-20T12:11:28;10.48;;;2.47;;
22525;SDS011;11429;50.842;4.386;2022-08-20T12:13:54;9.55;;;2.38;;
22525;SDS011;11429;50.842;4.386;2022-08-20T12:16:20;9.77;;;2.50;;
22525;SDS011;11429;50.842;4.386;2022-08-20T12:18:46;8.25;;;2.20;;
22525;SDS011;11429;50.842;4.386;2022-08-20T12:21:13;9.32;;;2.40;;
22525;SDS011;11429;50.842;4.386;2022-08-20T12:23:39;8.20;;;2.20;;
22525;SDS011;11429;50.842;4.386;2022-08-20T12:26:05;7.88;;;2.00;;
22525;SDS011;11429;50.842;4.386;2022-08-20T12:28:31;7.97;;;2.13;;
22525;SDS011;11429;50.842;4.386;2022-08-20T12:30:57;7.95;;;2.00;;
22525;SDS011;11429;50.842;4.386;2022-08-20T12:33:23;11.02;;;2.63;;
22525;SDS011;11429;50.842;4.386;2022-08-20T12:35:49;7.85;;;2.00;;
22525;SDS011;11429;50.842;4.386;2022-08-20T12:38:15;9.05;;;3.00;;
22525;SDS011;11429;50.842;4.386;2022-08-20T12:40:41;9.80;;;1.90;;
22525;SDS011;11429;50.842;4.386;2022-08-20T12:43:06;6.10;;;1.90;;
22525;SDS011;11429;50.842;4.386;2022-08-20T12:45:32;4.28;;;1.70;;
22525;SDS011;11429;50.842;4.386;2022-08-20T12:48:06;7.38;;;1.75;;
22525;SDS011;11429;50.842;4.386;2022-08-20T12:50:36;18.35;;;2.78;;
22525;SDS011;11429;50.842;4.386;2022-08-20T12:53:03;8.10;;;1.65;;
22525;SDS011;11429;50.842;4.386;2022-08-20T12:55:29;9.23;;;3.05;;
22525;SDS011;11429;50.842;4.386;2022-08-20T12:57:57;9.15;;;1.67;;
22525;SDS011;11429;50.842;4.386;2022-08-20T13:00:29;7.78;;;2.10;;
22525;SDS011;11429;50.842;4.386;2022-08-20T13:03:05;10.82;;;1.98;;
22525;SDS011;11429;50.842;4.386;2022-08-20T13:05:31;7.40;;;1.83;;
22525;SDS011;11429;50.842;4.386;2022-08-20T13:07:59;7.20;;;1.77;;
22525;SDS011;11429;50.842;4.386;2022-08-20T13:10:29;7.20;;;1.80;;
22525;SDS011;11429;50.842;4.386;2022-08-20T13:12:57;7.22;;;1.80;;
22525;SDS011;11429;50.842;4.386;2022-08-20T13:15:24;5.07;;;1.65;;
22525;SDS011;11429;50.842;4.386;2022-08-20T13:17:51;8.80;;;1.60;;
22525;SDS011;11429;50.842;4.386;2022-08-20T13:20:18;7.55;;;1.63;;
22525;SDS011;11429;50.842;4.386;2022-08-20T13:22:44;4.40;;;1.42;;
22525;SDS011;11429;50.842;4.386;2022-08-20T13:25:10;6.43;;;1.45;;
22525;SDS011;11429;50.842;4.386;2022-08-20T13:27:38;8.75;;;1.70;;
22525;SDS011;11429;50.842;4.386;2022-08-20T13:30:06;5.82;;;1.70;;
22525;SDS011;11429;50.842;4.386;2022-08-20T13:32:32;8.05;;;1.85;;
22525;SDS011;11429;50.842;4.386;2022-08-20T13:34:58;8.95;;;1.55;;
22525;SDS011;11429;50.842;4.386;2022-08-20T13:37:25;5.93;;;1.50;;
22525;SDS011;11429;50.842;4.386;2022-08-20T13:39:55;6.68;;;2.35;;
22525;SDS011;11429;50.842;4.386;2022-08-20T13:42:22;6.07;;;1.45;;
22525;SDS011;11429;50.842;4.386;2022-08-20T13:44:48;6.32;;;1.48;;
22525;SDS011;11429;50.842;4.386;2022-08-20T13:47:24;7.70;;;1.90;;
22525;SDS011;11429;50.842;4.386;2022-08-20T13:49:55;7.28;;;2.25;;
22525;SDS011;11429;50.842;4.386;2022-08-20T13:52:28;7.30;;;1.45;;
22525;SDS011;11429;50.842;4.386;2022-08-20T13:54:54;9.77;;;1.83;;
22525;SDS011;11429;50.842;4.386;2022-08-20T13:57:21;7.72;;;2.10;;
22525;SDS011;11429;50.842;4.386;2022-08-20T13:59:50;5.55;;;1.80;;
22525;SDS011;11429;50.842;4.386;2022-08-20T14:02:18;7.63;;;1.70;;
22525;SDS011;11429;50.842;4.386;2022-08-20T14:04:44;12.18;;;2.08;;
22525;SDS011;11429;50.842;4.386;2022-08-20T14:07:12;10.10;;;1.65;;
22525;SDS011;11429;50.842;4.386;2022-08-20T14:09:50;6.28;;;1.67;;
22525;SDS011;11429;50.842;4.386;2022-08-20T14:12:18;6.82;;;2.00;;
22525;SDS011;11429;50.842;4.386;2022-08-20T14:14:44;5.80;;;1.52;;
22525;SDS011;11429;50.842;4.386;2022-08-20T14:17:31;4.15;;;1.80;;
22525;SDS011;11429;50.842;4.386;2022-08-20T14:20:02;7.88;;;1.80;;
22525;SDS011;11429;50.842;4.386;2022-08-20T14:22:37;7.47;;;1.65;;
22525;SDS011;11429;50.842;4.386;2022-08-20T14:25:07;9.55;;;1.65;;
22525;SDS011;11429;50.842;4.386;2022-08-20T14:27:34;5.32;;;1.70;;
22525;SDS011;11429;50.842;4.386;2022-08-20T14:30:00;9.65;;;1.85;;
22525;SDS011;11429;50.842;4.386;2022-08-20T14:32:27;7.95;;;1.67;;
22525;SDS011;11429;50.842;4.386;2022-08-20T14:34:53;5.20;;;1.60;;
22525;SDS011;11429;50.842;4.386;2022-08-20T14:37:22;6.32;;;1.63;;
22525;SDS011;11429;50.842;4.386;2022-08-20T14:39:51;4.00;;;1.80;;
22525;SDS011;11429;50.842;4.386;2022-08-20T14:42:20;4.53;;;1.70;;
22525;SDS011;11429;50.842;4.386;2022-08-20T14:44:48;7.68;;;1.88;;
22525;SDS011;11429;50.842;4.386;2022-08-20T14:47:15;10.15;;;1.75;;
22525;SDS011;11429;50.842;4.386;2022-08-20T14:49:45;11.38;;;2.83;;
22525;SDS011;11429;50.842;4.386;2022-08-20T14:52:13;6.18;;;1.60;;